Главная страница
METAR-TAF:

METAR-TAF

Аэропорты :

Sullivan County International Airport

Monticello, Нью-Йорк, США

широта: 41-42N, долгота: 074-48W, высота над уровнем моря: 428 м

Текущие метеонаблюдения

Эта сводка был подготовлена 40 минут назад, в 18:56 UTC
Ветер 7 Узел от южный
Температура 13°C
Влажность 100%
Давление 1014 hPa
Видимость: 9.7 км
Сплошная облачность на высоте 200 фута
дымка

METAR: KMSV 151856Z AUTO 19007KT 6SM BR OVC002 13/13 A2994 RMK AO2 SLP144 T01330128

Время: 15:36 (19:36 UTC)


TAF: отсутствует

Метеонаблюдения и прогнозы для более 4000 аэропортов (сводки METAR и TAF).

Имеющиеся станции представлены на карте желтыми и красными точками.

Чтобы увидеть название станции, наведите на нее мышь.

Затем щелкните, чтобы увидеть метеонаблюдения и метеопрогнозы.

Управление картой: чтобы увеличить масштаб, щелкните зеленые кнопки с черным крестиком; чтобы уменьшить масштаб, щелкните зеленую кнопку с тире; для просмотра соседних карт щелкайте зеленые стрелки.


METAR-TAF: